createdAt,value
2023-02-24T00:00:22.220Z,0.00
2023-02-24T00:01:22.282Z,0.00
2023-02-24T00:02:22.231Z,0.00
2023-02-24T00:03:22.258Z,0.00
2023-02-24T00:04:22.172Z,0.00
2023-02-24T00:05:22.169Z,0.00
2023-02-24T00:06:22.140Z,0.00
2023-02-24T00:07:22.152Z,0.00
2023-02-24T00:08:22.112Z,0.00
2023-02-24T00:09:22.105Z,0.00
2023-02-24T00:10:22.122Z,0.00
2023-02-24T00:11:22.540Z,0.00
2023-02-24T00:12:22.065Z,0.00
2023-02-24T00:13:22.057Z,0.00
2023-02-24T00:14:22.052Z,0.00
2023-02-24T00:15:22.028Z,0.00
2023-02-24T00:16:22.139Z,0.00
2023-02-24T00:17:22.071Z,0.00
2023-02-24T00:18:22.010Z,0.00
2023-02-24T00:19:22.013Z,0.00
2023-02-24T00:20:21.987Z,0.00
2023-02-24T00:21:22.343Z,0.00
2023-02-24T00:22:21.955Z,0.00
2023-02-24T00:23:21.951Z,0.00
2023-02-24T00:24:21.930Z,0.00
2023-02-24T00:25:21.927Z,0.00
2023-02-24T00:26:21.956Z,0.00
2023-02-24T00:27:21.911Z,0.00
2023-02-24T00:28:21.880Z,0.00
2023-02-24T00:29:21.898Z,0.00
2023-02-24T00:30:21.860Z,0.00
2023-02-24T00:31:22.241Z,0.00
2023-02-24T00:32:22.105Z,0.00
2023-02-24T00:33:21.848Z,0.00
2023-02-24T00:34:21.826Z,0.00
2023-02-24T00:35:21.843Z,0.00
2023-02-24T00:36:21.822Z,0.00
2023-02-24T00:37:21.792Z,0.00
2023-02-24T00:38:21.788Z,0.00
2023-02-24T00:39:21.790Z,0.00
2023-02-24T00:40:21.770Z,0.00
2023-02-24T00:41:22.056Z,0.00
2023-02-24T00:42:21.767Z,0.00
2023-02-24T00:43:21.737Z,0.00
2023-02-24T00:44:21.730Z,0.00
2023-02-24T00:45:21.748Z,0.00
2023-02-24T00:46:21.841Z,0.00
2023-02-24T00:47:21.705Z,0.00
2023-02-24T00:48:21.685Z,0.00
2023-02-24T00:49:21.659Z,0.00
2023-02-24T00:50:21.671Z,0.00
2023-02-24T00:51:21.953Z,0.00
2023-02-24T00:52:21.629Z,0.00
2023-02-24T00:53:21.626Z,0.00
2023-02-24T00:54:21.624Z,0.00
2023-02-24T00:55:21.617Z,0.00
2023-02-24T00:56:21.600Z,0.00
2023-02-24T00:57:21.777Z,0.00
2023-02-24T00:58:21.586Z,0.00
2023-02-24T00:59:21.561Z,0.00
2023-02-24T01:00:21.562Z,0.00
2023-02-24T01:01:21.888Z,0.00
2023-02-24T01:02:21.606Z,0.00
2023-02-24T01:03:21.508Z,0.00
2023-02-24T01:04:21.603Z,0.00
2023-02-24T01:05:21.550Z,0.00
2023-02-24T01:06:21.508Z,0.00
2023-02-24T01:07:21.478Z,0.00
2023-02-24T01:08:21.560Z,0.00
2023-02-24T01:09:21.465Z,0.00
2023-02-24T01:10:21.432Z,0.00
2023-02-24T01:11:21.898Z,0.00
2023-02-24T01:12:21.562Z,0.00
2023-02-24T01:13:21.410Z,0.00
2023-02-24T01:14:21.423Z,0.00
2023-02-24T01:15:21.369Z,0.00
2023-02-24T01:16:21.474Z,0.00
2023-02-24T01:17:21.384Z,0.00
2023-02-24T01:18:21.387Z,0.00
2023-02-24T01:19:21.349Z,0.00
2023-02-24T01:20:21.313Z,0.00
2023-02-24T01:21:21.583Z,0.00
2023-02-24T01:22:21.338Z,0.00
2023-02-24T01:23:21.280Z,0.00
2023-02-24T01:24:21.297Z,0.00
2023-02-24T01:25:21.304Z,0.00
2023-02-24T01:26:21.249Z,0.00
2023-02-24T01:27:21.257Z,0.00
2023-02-24T01:28:21.246Z,0.00
2023-02-24T01:29:21.233Z,0.00
2023-02-24T01:30:21.322Z,0.00
2023-02-24T01:31:21.569Z,0.00
2023-02-24T01:32:21.601Z,0.00
2023-02-24T01:33:21.233Z,0.00
2023-02-24T01:34:21.173Z,0.00
2023-02-24T01:35:21.163Z,0.00
2023-02-24T01:36:21.142Z,0.00
2023-02-24T01:37:21.157Z,0.00
2023-02-24T01:38:21.125Z,0.00
2023-02-24T01:39:21.131Z,0.00
2023-02-24T01:40:21.676Z,0.00
2023-02-24T01:41:21.460Z,0.00
2023-02-24T01:42:21.079Z,0.00
2023-02-24T01:43:21.082Z,0.00
2023-02-24T01:44:21.055Z,0.00
2023-02-24T01:45:21.057Z,0.00
2023-02-24T01:46:21.091Z,0.00
2023-02-24T01:47:21.447Z,0.00
2023-02-24T01:48:21.024Z,0.00
2023-02-24T01:49:21.006Z,0.00
2023-02-24T01:50:20.999Z,0.00
2023-02-24T01:51:21.346Z,0.00
2023-02-24T01:52:21.010Z,0.00
2023-02-24T01:53:20.967Z,0.00
2023-02-24T01:54:20.968Z,0.00
2023-02-24T01:55:20.931Z,0.00
2023-02-24T01:56:20.938Z,0.00
2023-02-24T01:57:20.962Z,0.00
2023-02-24T01:58:20.903Z,0.00
2023-02-24T01:59:20.914Z,0.00
2023-02-24T02:00:20.886Z,0.00
2023-02-24T02:01:21.237Z,0.00
2023-02-24T02:02:21.088Z,0.00
2023-02-24T02:03:20.850Z,0.00
2023-02-24T02:04:20.833Z,0.00
2023-02-24T02:05:20.828Z,0.00
2023-02-24T02:06:20.813Z,0.00
2023-02-24T02:07:20.821Z,0.00
2023-02-24T02:08:20.825Z,0.00
2023-02-24T02:09:20.791Z,0.00
2023-02-24T02:10:20.803Z,0.00
2023-02-24T02:11:21.364Z,0.00
2023-02-24T02:12:20.748Z,0.00
2023-02-24T02:13:20.835Z,0.00
2023-02-24T02:14:20.739Z,0.00
2023-02-24T02:15:20.923Z,0.00
2023-02-24T02:16:20.833Z,0.00
2023-02-24T02:17:20.703Z,0.00
2023-02-24T02:18:20.723Z,0.00
2023-02-24T02:19:20.700Z,0.00
2023-02-24T02:20:20.660Z,0.00
2023-02-24T02:21:20.978Z,0.00
2023-02-24T02:22:20.652Z,0.00
2023-02-24T02:23:20.663Z,0.00
2023-02-24T02:24:20.629Z,0.00
2023-02-24T02:25:20.631Z,0.00
2023-02-24T02:26:20.615Z,0.00
2023-02-24T02:27:20.605Z,0.00
2023-02-24T02:28:20.570Z,0.00
2023-02-24T02:29:20.569Z,0.00
2023-02-24T02:30:20.562Z,0.00
2023-02-24T02:31:21.009Z,0.00
2023-02-24T02:32:20.693Z,0.00
2023-02-24T02:33:20.532Z,0.00
2023-02-24T02:34:20.545Z,0.00
2023-02-24T02:35:20.524Z,0.00
2023-02-24T02:36:20.506Z,0.00
2023-02-24T02:37:20.484Z,0.00
2023-02-24T02:38:20.470Z,0.00
2023-02-24T02:39:20.468Z,0.00
2023-02-24T02:40:20.458Z,0.00
2023-02-24T02:41:20.764Z,0.00
2023-02-24T02:42:20.416Z,0.00
2023-02-24T02:43:20.406Z,0.00
2023-02-24T02:44:20.411Z,0.00
2023-02-24T02:45:20.394Z,0.00
2023-02-24T02:46:20.389Z,0.00
2023-02-24T02:47:20.374Z,0.00
2023-02-24T02:48:20.340Z,0.00
2023-02-24T02:49:20.347Z,0.00
2023-02-24T02:50:20.349Z,0.00
2023-02-24T02:51:20.681Z,0.00
2023-02-24T02:52:20.320Z,0.00
2023-02-24T02:53:20.292Z,0.00
2023-02-24T02:54:20.279Z,0.00
2023-02-24T02:55:20.267Z,0.00
2023-02-24T02:56:20.270Z,0.00
2023-02-24T02:57:20.244Z,0.00
2023-02-24T02:58:20.243Z,0.00
2023-02-24T02:59:20.237Z,0.00
2023-02-24T03:00:20.216Z,0.00
2023-02-24T03:01:20.573Z,0.00
2023-02-24T03:02:20.207Z,0.00
2023-02-24T03:03:20.175Z,0.00
2023-02-24T03:04:20.269Z,0.00
2023-02-24T03:05:20.161Z,0.00
2023-02-24T03:06:20.296Z,0.00
2023-02-24T03:07:20.153Z,0.00
2023-02-24T03:08:20.127Z,0.00
2023-02-24T03:09:20.115Z,0.00
2023-02-24T03:10:20.120Z,0.00
2023-02-24T03:11:20.508Z,0.00
2023-02-24T03:12:20.095Z,0.00
2023-02-24T03:13:20.073Z,0.00
2023-02-24T03:14:20.066Z,0.00
2023-02-24T03:15:20.041Z,0.00
2023-02-24T03:16:20.114Z,0.00
2023-02-24T03:17:20.021Z,0.00
2023-02-24T03:18:20.041Z,0.00
2023-02-24T03:19:20.029Z,0.00
2023-02-24T03:20:19.986Z,0.00
2023-02-24T03:21:20.436Z,0.00
2023-02-24T03:22:19.992Z,0.00
2023-02-24T03:23:19.953Z,0.00
2023-02-24T03:24:19.945Z,0.00
2023-02-24T03:25:19.938Z,0.00
2023-02-24T03:26:19.918Z,0.00
2023-02-24T03:27:19.920Z,0.00
2023-02-24T03:28:19.902Z,0.00
2023-02-24T03:29:19.910Z,0.00
2023-02-24T03:30:19.891Z,0.00
2023-02-24T03:31:20.466Z,0.00
2023-02-24T03:32:20.109Z,0.00
2023-02-24T03:33:19.863Z,0.00
2023-02-24T03:34:19.841Z,0.00
2023-02-24T03:35:19.833Z,0.00
2023-02-24T03:36:19.832Z,0.00
2023-02-24T03:37:19.808Z,0.00
2023-02-24T03:38:19.838Z,0.00
2023-02-24T03:39:19.792Z,0.00
2023-02-24T03:40:19.782Z,0.00
2023-02-24T03:41:20.208Z,0.00
2023-02-24T03:42:19.743Z,0.00
2023-02-24T03:43:19.735Z,0.00
2023-02-24T03:44:19.731Z,0.00
2023-02-24T03:45:19.716Z,0.00
2023-02-24T03:46:19.781Z,0.00
2023-02-24T03:47:19.697Z,0.00
2023-02-24T03:48:19.673Z,0.00
2023-02-24T03:49:19.678Z,0.00
2023-02-24T03:50:19.661Z,0.00
2023-02-24T03:51:19.959Z,0.00
2023-02-24T03:52:19.644Z,0.00
2023-02-24T03:53:19.624Z,0.00
2023-02-24T03:54:19.647Z,0.00
2023-02-24T03:55:19.620Z,0.00
2023-02-24T03:56:19.587Z,0.00
2023-02-24T03:57:19.607Z,0.00
2023-02-24T03:58:19.567Z,0.00
2023-02-24T03:59:19.556Z,0.00
2023-02-24T04:00:19.557Z,0.00
2023-02-24T04:01:19.942Z,0.00
2023-02-24T04:02:19.604Z,0.00
2023-02-24T04:03:19.531Z,0.00
2023-02-24T04:04:19.560Z,0.00
2023-02-24T04:05:19.484Z,0.00
2023-02-24T04:06:19.489Z,0.00
2023-02-24T04:07:19.476Z,0.00
2023-02-24T04:08:19.468Z,0.00
2023-02-24T04:09:19.464Z,0.00
2023-02-24T04:10:19.472Z,0.00
2023-02-24T04:11:19.769Z,0.00
2023-02-24T04:12:19.464Z,0.00
2023-02-24T04:13:19.403Z,0.00
2023-02-24T04:14:19.401Z,0.00
2023-02-24T04:15:19.396Z,0.00
2023-02-24T04:16:19.375Z,0.00
2023-02-24T04:17:19.501Z,0.00
2023-02-24T04:18:19.357Z,0.00
2023-02-24T04:19:19.334Z,0.00
2023-02-24T04:20:19.335Z,0.00
2023-02-24T04:21:19.694Z,0.00
2023-02-24T04:22:19.305Z,0.00
2023-02-24T04:23:19.293Z,0.00
2023-02-24T04:24:19.279Z,0.00
2023-02-24T04:25:19.272Z,0.00
2023-02-24T04:26:19.279Z,0.00
2023-02-24T04:27:19.263Z,0.00
2023-02-24T04:28:19.229Z,0.00
2023-02-24T04:29:19.215Z,0.00
2023-02-24T04:30:19.221Z,0.00
2023-02-24T04:31:19.496Z,0.00
2023-02-24T04:32:19.328Z,0.00
2023-02-24T04:33:19.191Z,0.00
2023-02-24T04:34:19.172Z,0.00
2023-02-24T04:35:19.170Z,0.00
2023-02-24T04:36:19.142Z,0.00
2023-02-24T04:37:19.131Z,0.00
2023-02-24T04:38:19.137Z,0.00
2023-02-24T04:39:19.115Z,0.00
2023-02-24T04:40:19.097Z,0.00
2023-02-24T04:41:19.489Z,0.00
2023-02-24T04:42:19.110Z,0.00
2023-02-24T04:43:19.100Z,0.00
2023-02-24T04:44:19.071Z,0.00
2023-02-24T04:45:19.056Z,0.00
2023-02-24T04:46:19.119Z,0.00
2023-02-24T04:47:19.055Z,0.00
2023-02-24T04:48:19.023Z,0.00
2023-02-24T04:49:19.022Z,0.00
2023-02-24T04:50:19.011Z,0.00
2023-02-24T04:51:19.274Z,0.00
2023-02-24T04:52:18.976Z,0.00
2023-02-24T04:53:18.957Z,0.00
2023-02-24T04:54:18.938Z,0.00
2023-02-24T04:55:18.948Z,0.00
2023-02-24T04:56:18.933Z,0.00
2023-02-24T04:57:18.919Z,0.00
2023-02-24T04:58:18.917Z,0.00
2023-02-24T04:59:18.887Z,0.00
2023-02-24T05:00:18.872Z,0.00
2023-02-24T05:01:19.301Z,0.00
2023-02-24T05:02:20.165Z,0.00
2023-02-24T05:03:18.845Z,0.00
2023-02-24T05:04:18.897Z,0.00
2023-02-24T05:05:18.822Z,0.00
2023-02-24T05:06:18.827Z,0.00
2023-02-24T05:07:18.806Z,0.00
2023-02-24T05:08:18.802Z,0.00
2023-02-24T05:09:18.801Z,0.00
2023-02-24T05:10:18.805Z,0.00
2023-02-24T05:11:19.261Z,0.00
2023-02-24T05:12:18.746Z,0.00
2023-02-24T05:13:18.749Z,0.00
2023-02-24T05:14:18.767Z,0.00
2023-02-24T05:15:18.748Z,0.00
2023-02-24T05:16:18.740Z,0.00
2023-02-24T05:17:18.742Z,0.00
2023-02-24T05:18:21.195Z,0.00
2023-02-24T05:19:18.659Z,0.00
2023-02-24T05:20:18.653Z,0.00
2023-02-24T05:21:19.081Z,0.00
2023-02-24T05:22:18.648Z,0.00
2023-02-24T05:23:18.617Z,0.00
2023-02-24T05:24:18.616Z,0.00
2023-02-24T05:25:18.618Z,0.00
2023-02-24T05:26:18.678Z,0.00
2023-02-24T05:27:18.588Z,0.00
2023-02-24T05:28:18.576Z,0.00
2023-02-24T05:29:18.548Z,0.00
2023-02-24T05:30:18.563Z,0.00
2023-02-24T05:31:18.704Z,0.00
2023-02-24T05:32:18.671Z,0.00
2023-02-24T05:33:18.516Z,0.00
2023-02-24T05:34:18.503Z,0.00
2023-02-24T05:35:18.496Z,0.00
2023-02-24T05:36:18.488Z,0.00
2023-02-24T05:37:18.471Z,0.00
2023-02-24T05:38:18.456Z,0.00
2023-02-24T05:39:18.470Z,0.00
2023-02-24T05:40:18.424Z,0.00
2023-02-24T05:41:18.678Z,0.00
2023-02-24T05:42:18.402Z,0.00
2023-02-24T05:43:18.414Z,0.00
2023-02-24T05:44:18.399Z,0.00
2023-02-24T05:45:18.427Z,0.00
2023-02-24T05:46:18.460Z,0.00
2023-02-24T05:47:18.349Z,0.00
2023-02-24T05:48:18.361Z,0.00
2023-02-24T05:49:18.325Z,0.00
2023-02-24T05:50:18.327Z,0.00
2023-02-24T05:51:18.534Z,0.00
2023-02-24T05:52:18.302Z,0.00
2023-02-24T05:53:18.298Z,0.00
2023-02-24T05:54:18.274Z,0.00
2023-02-24T05:55:18.257Z,0.00
2023-02-24T05:56:18.262Z,0.00
2023-02-24T05:57:18.250Z,0.00
2023-02-24T05:58:18.224Z,0.00
2023-02-24T05:59:18.278Z,0.00
2023-02-24T06:00:18.224Z,0.00
2023-02-24T06:01:18.491Z,0.00
2023-02-24T06:02:18.274Z,0.00
2023-02-24T06:03:18.269Z,4.00
2023-02-24T06:04:18.180Z,4.00
2023-02-24T06:05:20.857Z,0.00
2023-02-24T06:06:18.145Z,4.00
2023-02-24T06:07:18.156Z,4.00
2023-02-24T06:08:18.125Z,4.00
2023-02-24T06:09:18.118Z,4.00
2023-02-24T06:10:18.105Z,4.00
2023-02-24T06:11:18.096Z,4.00
2023-02-24T06:12:18.092Z,4.00
2023-02-24T06:13:18.100Z,8.00
2023-02-24T06:14:18.059Z,8.00
2023-02-24T06:15:18.057Z,8.00
2023-02-24T06:16:18.107Z,12.00
2023-02-24T06:17:25.848Z,12.00
2023-02-24T06:18:18.025Z,20.00
2023-02-24T06:19:18.014Z,24.00
2023-02-24T06:20:17.976Z,32.00
2023-02-24T06:21:17.994Z,40.00
2023-02-24T06:22:17.963Z,48.00
2023-02-24T06:23:17.967Z,52.00
2023-02-24T06:24:17.955Z,60.00
2023-02-24T06:25:17.964Z,68.00
2023-02-24T06:26:17.981Z,72.00
2023-02-24T06:27:18.101Z,72.00
2023-02-24T06:28:17.908Z,76.00
2023-02-24T06:29:17.907Z,84.00
2023-02-24T06:30:17.881Z,92.00
2023-02-24T06:31:17.887Z,104.00
2023-02-24T06:32:18.105Z,116.00
2023-02-24T06:33:17.914Z,116.00
2023-02-24T06:34:17.876Z,124.00
2023-02-24T06:35:17.813Z,140.00
2023-02-24T06:36:17.822Z,168.00
2023-02-24T06:37:17.840Z,204.00
2023-02-24T06:38:17.787Z,228.00
2023-02-24T06:39:17.774Z,252.00
2023-02-24T06:40:17.824Z,272.00
2023-02-24T06:41:17.822Z,296.00
2023-02-24T06:42:17.786Z,308.00
2023-02-24T06:43:17.758Z,324.00
2023-02-24T06:44:17.738Z,332.00
2023-02-24T06:45:18.759Z,336.00
2023-02-24T06:46:17.753Z,348.00
2023-02-24T06:47:17.702Z,372.00
2023-02-24T06:48:17.685Z,400.00
2023-02-24T06:49:17.738Z,416.00
2023-02-24T06:50:17.703Z,420.00
2023-02-24T06:51:18.472Z,432.00
2023-02-24T06:52:17.657Z,452.00
2023-02-24T06:53:17.636Z,484.00
2023-02-24T06:54:18.185Z,528.00
2023-02-24T06:55:17.690Z,592.00
2023-02-24T06:56:17.596Z,664.00
2023-02-24T06:57:17.786Z,716.00
2023-02-24T06:58:20.243Z,756.00
2023-02-24T06:59:17.625Z,796.00
2023-02-24T07:00:17.660Z,856.00
2023-02-24T07:01:17.696Z,920.00
2023-02-24T07:02:17.556Z,988.00
2023-02-24T07:03:17.544Z,1056.00
2023-02-24T07:04:17.714Z,1124.00
2023-02-24T07:05:17.528Z,1168.00
2023-02-24T07:06:17.492Z,1196.00
2023-02-24T07:07:17.743Z,1280.00
2023-02-24T07:08:17.452Z,1400.00
2023-02-24T07:09:17.467Z,1480.00
2023-02-24T07:10:17.436Z,1544.00
2023-02-24T07:11:17.452Z,1600.00
2023-02-24T07:12:17.424Z,1652.00
2023-02-24T07:13:17.412Z,1724.00
2023-02-24T07:14:17.403Z,1788.00
2023-02-24T07:15:17.401Z,1768.00
2023-02-24T07:16:17.412Z,1692.00
2023-02-24T07:17:17.362Z,1620.00
2023-02-24T07:18:17.373Z,1616.00
2023-02-24T07:19:17.382Z,1712.00
2023-02-24T07:20:17.328Z,1824.00
2023-02-24T07:21:17.350Z,1860.00
2023-02-24T07:22:17.324Z,1896.00
2023-02-24T07:23:17.319Z,2000.00
2023-02-24T07:24:17.285Z,2120.00
2023-02-24T07:25:18.184Z,2248.00
2023-02-24T07:26:17.256Z,2368.00
2023-02-24T07:27:17.290Z,2480.00
2023-02-24T07:28:17.251Z,2572.00
2023-02-24T07:29:17.235Z,2612.00
2023-02-24T07:30:17.237Z,2632.00
2023-02-24T07:31:17.413Z,2688.00
2023-02-24T07:32:17.345Z,2768.00
2023-02-24T07:33:17.205Z,2904.00
2023-02-24T07:34:17.175Z,3100.00
2023-02-24T07:35:17.848Z,3288.00
2023-02-24T07:36:17.177Z,3512.00
2023-02-24T07:37:17.187Z,3708.00
2023-02-24T07:38:17.216Z,3808.00
2023-02-24T07:39:17.115Z,3728.00
2023-02-24T07:40:17.112Z,3572.00
2023-02-24T07:41:17.074Z,3564.00
2023-02-24T07:42:17.101Z,3584.00
2023-02-24T07:43:17.101Z,3640.00
2023-02-24T07:44:17.072Z,3680.00
2023-02-24T07:45:17.113Z,3672.00
2023-02-24T07:46:17.151Z,3560.00
2023-02-24T07:47:17.170Z,3408.00
2023-02-24T07:48:17.707Z,3292.00
2023-02-24T07:49:17.009Z,3232.00
2023-02-24T07:50:16.987Z,3184.00
2023-02-24T07:51:16.983Z,3148.00
2023-02-24T07:52:16.969Z,3124.00
2023-02-24T07:53:16.988Z,3148.00
2023-02-24T07:54:17.217Z,3196.00
2023-02-24T07:55:16.981Z,3240.00
2023-02-24T07:56:16.997Z,3272.00
2023-02-24T07:57:16.958Z,3312.00
2023-02-24T07:58:16.933Z,3348.00
2023-02-24T07:59:16.895Z,3392.00
2023-02-24T08:00:16.938Z,3476.00
2023-02-24T08:01:16.906Z,3532.00
2023-02-24T08:02:17.282Z,3516.00
2023-02-24T08:03:17.212Z,3468.00
2023-02-24T08:04:16.888Z,3420.00
2023-02-24T08:05:16.916Z,3404.00
2023-02-24T08:06:16.815Z,3384.00
2023-02-24T08:07:17.039Z,3336.00
2023-02-24T08:08:17.219Z,3276.00
2023-02-24T08:09:16.875Z,3208.00
2023-02-24T08:10:16.807Z,3128.00
2023-02-24T08:11:16.817Z,3100.00
2023-02-24T08:12:16.763Z,3096.00
2023-02-24T08:13:16.964Z,3052.00
2023-02-24T08:14:16.775Z,2980.00
2023-02-24T08:15:16.711Z,2896.00
2023-02-24T08:16:16.888Z,2764.00
2023-02-24T08:17:16.702Z,2636.00
2023-02-24T08:18:16.696Z,2604.00
2023-02-24T08:19:16.901Z,2572.00
2023-02-24T08:20:16.668Z,2536.00
2023-02-24T08:21:16.802Z,2492.00
2023-02-24T08:22:16.660Z,2472.00
2023-02-24T08:23:16.728Z,2352.00
2023-02-24T08:24:16.693Z,2364.00
2023-02-24T08:25:17.255Z,2540.00
2023-02-24T08:26:16.655Z,2812.00
2023-02-24T08:27:16.602Z,3040.00
2023-02-24T08:28:16.574Z,3176.00
2023-02-24T08:29:16.556Z,3176.00
2023-02-24T08:30:16.599Z,3252.00
2023-02-24T08:31:16.678Z,3176.00
2023-02-24T08:32:18.972Z,2932.00
2023-02-24T08:33:16.574Z,2724.00
2023-02-24T08:34:16.557Z,2700.00
2023-02-24T08:35:16.729Z,2816.00
2023-02-24T08:36:16.545Z,3000.00
2023-02-24T08:37:16.468Z,3248.00
2023-02-24T08:38:16.451Z,3576.00
2023-02-24T08:39:16.458Z,3764.00
2023-02-24T08:40:16.459Z,3708.00
2023-02-24T08:41:16.486Z,3732.00
2023-02-24T08:42:16.410Z,3848.00
2023-02-24T08:43:16.496Z,3968.00
2023-02-24T08:44:16.495Z,3972.00
2023-02-24T08:45:16.446Z,3948.00
2023-02-24T08:46:16.446Z,3920.00
2023-02-24T08:47:16.360Z,3908.00
2023-02-24T08:48:16.466Z,3828.00
2023-02-24T08:49:16.387Z,3640.00
2023-02-24T08:50:16.765Z,3524.00
2023-02-24T08:51:16.424Z,3536.00
2023-02-24T08:52:16.317Z,3580.00
2023-02-24T08:53:16.314Z,3560.00
2023-02-24T08:54:16.276Z,3380.00
2023-02-24T08:55:16.294Z,3284.00
2023-02-24T08:56:16.266Z,3444.00
2023-02-24T08:57:16.725Z,3764.00
2023-02-24T08:58:16.253Z,3988.00
2023-02-24T08:59:16.230Z,4116.00
2023-02-24T09:00:16.211Z,4144.00
2023-02-24T09:01:16.299Z,4112.00
2023-02-24T09:02:16.249Z,4140.00
2023-02-24T09:03:16.316Z,4036.00
2023-02-24T09:04:16.256Z,3848.00
2023-02-24T09:05:16.204Z,3732.00
2023-02-24T09:06:16.168Z,3596.00
2023-02-24T09:07:16.248Z,3520.00
2023-02-24T09:08:16.199Z,3392.00
2023-02-24T09:09:16.217Z,3452.00
2023-02-24T09:10:16.117Z,3648.00
2023-02-24T09:11:16.793Z,3740.00
2023-02-24T09:12:16.116Z,3820.00
2023-02-24T09:13:16.104Z,3816.00
2023-02-24T09:14:26.185Z,3732.00
2023-02-24T09:15:17.113Z,3604.00
2023-02-24T09:16:16.122Z,3572.00
2023-02-24T09:17:16.037Z,3676.00
2023-02-24T09:18:16.073Z,3696.00
2023-02-24T09:19:16.021Z,3656.00
2023-02-24T09:20:16.015Z,3688.00
2023-02-24T09:21:16.126Z,3752.00
2023-02-24T09:22:21.390Z,3768.00
2023-02-24T09:23:16.976Z,3820.00
2023-02-24T09:24:16.933Z,3844.00
2023-02-24T09:25:16.281Z,3924.00
2023-02-24T09:26:15.916Z,4012.00
2023-02-24T09:27:15.935Z,4108.00
2023-02-24T09:28:15.967Z,4232.00
2023-02-24T09:29:15.937Z,4344.00
2023-02-24T09:30:15.877Z,4424.00
2023-02-24T09:31:16.081Z,4524.00
2023-02-24T09:32:16.055Z,4596.00
2023-02-24T09:33:15.889Z,4452.00
2023-02-24T09:34:15.835Z,4160.00
2023-02-24T09:35:15.826Z,3952.00
2023-02-24T09:36:15.839Z,4164.00
2023-02-24T09:37:15.836Z,4664.00
2023-02-24T09:38:15.826Z,4836.00
2023-02-24T09:39:15.828Z,4684.00
2023-02-24T09:40:15.820Z,4804.00
2023-02-24T09:41:18.863Z,5152.00
2023-02-24T09:42:15.893Z,5384.00
2023-02-24T09:43:15.748Z,5520.00
2023-02-24T09:44:15.789Z,5632.00
2023-02-24T09:45:15.767Z,5944.00
2023-02-24T09:46:15.895Z,6200.00
2023-02-24T09:47:15.697Z,6212.00
2023-02-24T09:48:16.879Z,6120.00
2023-02-24T09:49:15.676Z,6088.00
2023-02-24T09:50:17.110Z,5904.00
2023-02-24T09:51:15.660Z,5732.00
2023-02-24T09:52:15.673Z,5568.00
2023-02-24T09:53:15.654Z,5284.00
2023-02-24T09:54:15.620Z,4856.00
2023-02-24T09:55:15.646Z,4636.00
2023-02-24T09:56:15.627Z,4564.00
2023-02-24T09:57:15.647Z,4808.00
2023-02-24T09:58:15.556Z,4788.00
2023-02-24T09:59:15.596Z,4848.00
2023-02-24T10:00:15.732Z,4984.00
2023-02-24T10:01:15.607Z,4984.00
2023-02-24T10:02:15.623Z,4808.00
2023-02-24T10:03:15.536Z,4408.00
2023-02-24T10:04:21.103Z,3932.00
2023-02-24T10:05:16.522Z,3764.00
2023-02-24T10:06:15.491Z,3796.00
2023-02-24T10:07:15.503Z,3868.00
2023-02-24T10:08:15.468Z,4064.00
2023-02-24T10:09:15.469Z,4164.00
2023-02-24T10:10:15.451Z,3944.00
2023-02-24T10:11:15.737Z,4088.00
2023-02-24T10:12:15.424Z,4460.00
2023-02-24T10:13:15.394Z,4980.00
2023-02-24T10:14:15.425Z,5272.00
2023-02-24T10:15:15.386Z,5344.00
2023-02-24T10:16:15.496Z,5440.00
2023-02-24T10:17:15.435Z,5648.00
2023-02-24T10:18:15.417Z,5852.00
2023-02-24T10:19:15.574Z,5932.00
2023-02-24T10:20:15.372Z,6416.00
2023-02-24T10:21:15.377Z,6660.00
2023-02-24T10:22:15.348Z,6208.00
2023-02-24T10:23:15.339Z,5912.00
2023-02-24T10:24:15.308Z,5888.00
2023-02-24T10:25:21.118Z,6280.00
2023-02-24T10:26:16.414Z,6976.00
2023-02-24T10:27:17.871Z,7124.00
2023-02-24T10:28:15.253Z,7124.00
2023-02-24T10:29:16.865Z,7484.00
2023-02-24T10:30:15.226Z,7676.00
2023-02-24T10:31:15.334Z,7640.00
2023-02-24T10:32:15.556Z,7812.00
2023-02-24T10:33:15.258Z,8248.00
2023-02-24T10:34:15.188Z,8648.00
2023-02-24T10:35:15.203Z,8984.00
2023-02-24T10:36:15.146Z,9368.00
2023-02-24T10:37:27.641Z,9620.00
2023-02-24T10:38:16.230Z,9580.00
2023-02-24T10:39:15.138Z,9384.00
2023-02-24T10:40:15.132Z,9136.00
2023-02-24T10:41:15.137Z,8924.00
2023-02-24T10:42:15.198Z,8652.00
2023-02-24T10:43:15.119Z,8372.00
2023-02-24T10:44:15.083Z,8232.00
2023-02-24T10:45:18.869Z,8444.00
2023-02-24T10:46:15.171Z,8884.00
2023-02-24T10:47:15.129Z,9004.00
2023-02-24T10:48:15.617Z,9008.00
2023-02-24T10:49:15.034Z,8964.00
2023-02-24T10:50:15.046Z,8932.00
2023-02-24T10:51:15.004Z,8600.00
2023-02-24T10:52:15.019Z,8604.00
2023-02-24T10:53:14.955Z,8780.00
2023-02-24T10:54:14.972Z,8540.00
2023-02-24T10:55:14.965Z,8308.00
2023-02-24T10:56:15.096Z,8056.00
2023-02-24T10:57:14.957Z,7872.00
2023-02-24T10:58:14.905Z,8260.00
2023-02-24T10:59:14.944Z,8656.00
2023-02-24T11:00:14.885Z,8668.00
2023-02-24T11:01:15.005Z,8176.00
2023-02-24T11:02:14.875Z,8260.00
2023-02-24T11:03:22.103Z,8684.00
2023-02-24T11:04:15.848Z,8792.00
2023-02-24T11:05:14.925Z,8964.00
2023-02-24T11:06:14.838Z,8824.00
2023-02-24T11:07:14.814Z,8880.00
2023-02-24T11:08:14.804Z,9160.00
2023-02-24T11:09:14.779Z,9344.00
2023-02-24T11:10:14.778Z,9336.00
2023-02-24T11:11:14.780Z,9192.00
2023-02-24T11:12:14.768Z,8980.00
2023-02-24T11:13:14.785Z,8772.00
2023-02-24T11:14:14.781Z,8736.00
2023-02-24T11:15:14.756Z,8804.00
2023-02-24T11:16:14.874Z,8880.00
2023-02-24T11:17:14.722Z,8880.00
2023-02-24T11:18:14.697Z,8836.00
2023-02-24T11:19:14.697Z,8828.00
2023-02-24T11:20:14.693Z,8752.00
2023-02-24T11:21:14.668Z,8920.00
2023-02-24T11:22:14.674Z,8976.00
2023-02-24T11:23:14.642Z,8956.00
2023-02-24T11:24:14.622Z,8716.00
2023-02-24T11:25:14.619Z,8568.00
2023-02-24T11:26:14.641Z,8516.00
2023-02-24T11:27:14.632Z,8536.00
2023-02-24T11:28:14.602Z,8684.00
2023-02-24T11:29:14.591Z,8820.00
2023-02-24T11:30:14.701Z,8856.00
2023-02-24T11:31:14.845Z,8756.00
2023-02-24T11:32:15.646Z,8600.00
2023-02-24T11:33:14.563Z,8464.00
2023-02-24T11:34:14.568Z,8352.00
2023-02-24T11:35:14.531Z,8252.00
2023-02-24T11:36:14.494Z,8164.00
2023-02-24T11:37:14.578Z,8124.00
2023-02-24T11:38:14.454Z,8128.00
2023-02-24T11:39:20.452Z,8116.00
2023-02-24T11:40:15.519Z,8092.00
2023-02-24T11:41:14.451Z,8072.00
2023-02-24T11:42:14.852Z,8124.00
2023-02-24T11:43:15.206Z,8136.00
2023-02-24T11:44:15.351Z,8084.00
2023-02-24T11:45:14.405Z,7960.00
2023-02-24T11:46:14.546Z,7844.00
2023-02-24T11:47:14.429Z,7632.00
2023-02-24T11:48:14.363Z,7340.00
2023-02-24T11:49:14.352Z,7000.00
2023-02-24T11:50:14.412Z,6728.00
2023-02-24T11:51:14.332Z,6628.00
2023-02-24T11:52:14.442Z,6588.00
2023-02-24T11:53:14.370Z,6512.00
2023-02-24T11:54:14.303Z,6516.00
2023-02-24T11:55:14.266Z,6448.00
2023-02-24T11:56:14.307Z,6284.00
2023-02-24T11:57:14.303Z,6140.00
2023-02-24T11:58:14.261Z,5976.00
2023-02-24T11:59:14.247Z,5776.00
2023-02-24T12:00:14.242Z,5596.00
2023-02-24T12:01:14.200Z,5408.00
2023-02-24T12:02:14.230Z,5260.00
2023-02-24T12:03:14.353Z,5228.00
2023-02-24T12:04:14.208Z,5276.00
2023-02-24T12:05:14.269Z,5368.00
2023-02-24T12:06:14.767Z,5376.00
2023-02-24T12:07:14.156Z,5240.00
2023-02-24T12:08:14.165Z,5036.00
2023-02-24T12:09:14.442Z,4884.00
2023-02-24T12:10:17.403Z,4860.00
2023-02-24T12:11:14.092Z,4968.00
2023-02-24T12:12:14.118Z,5080.00
2023-02-24T12:13:14.126Z,5112.00
2023-02-24T12:14:14.084Z,5056.00
2023-02-24T12:15:14.693Z,4948.00
2023-02-24T12:16:14.129Z,4808.00
2023-02-24T12:17:14.191Z,4656.00
2023-02-24T12:18:14.040Z,4536.00
2023-02-24T12:19:14.026Z,4436.00
2023-02-24T12:20:14.086Z,4332.00
2023-02-24T12:21:14.009Z,4228.00
2023-02-24T12:22:14.003Z,4136.00
2023-02-24T12:23:14.016Z,4056.00
2023-02-24T12:24:13.959Z,4016.00
2023-02-24T12:25:14.027Z,4044.00
2023-02-24T12:26:13.931Z,4112.00
2023-02-24T12:27:13.967Z,4184.00
2023-02-24T12:28:13.915Z,4252.00
2023-02-24T12:29:13.916Z,4368.00
2023-02-24T12:30:13.923Z,4464.00
2023-02-24T12:31:14.093Z,4488.00
2023-02-24T12:32:14.042Z,4424.00
2023-02-24T12:33:14.208Z,4320.00
2023-02-24T12:34:13.854Z,4208.00
2023-02-24T12:35:13.828Z,4092.00
2023-02-24T12:36:13.837Z,3992.00
2023-02-24T12:37:13.811Z,3904.00
2023-02-24T12:38:13.794Z,3840.00
2023-02-24T12:39:13.791Z,3784.00
2023-02-24T12:40:13.778Z,3716.00
2023-02-24T12:41:13.821Z,3668.00